Time;durP1;ratioP1;P1;durP2;ratioP2;P2;SDS_P1;SDS_P2;PMS_P1;PMS_P2;Temp;Humidity;BMP_temperature;BMP_pressure;BME280_temperature;BME280_humidity;BME280_pressure;Samples;Min_cycle;Max_cycle;Signal;HPM_P1;HPM_P2
2022/09/30 00:00:16;;;;;;;5.87;5.37;;;12.90;52.60;;;;;;20727;6841;118692;-84
2022/09/30 00:02:41;;;;;;;5.20;4.80;;;12.80;52.90;;;;;;20720;6841;117537;-84
2022/09/30 00:05:06;;;;;;;6.67;5.20;;;12.40;53.50;;;;;;20728;6841;118822;-83
2022/09/30 00:07:32;;;;;;;5.93;5.53;;;12.10;54.10;;;;;;20509;6841;324598;-84
2022/09/30 00:09:59;;;;;;;6.93;5.80;;;12.30;54.30;;;;;;20494;6841;309007;-85
2022/09/30 00:12:26;;;;;;;6.27;5.70;;;12.60;53.80;;;;;;20728;6841;117712;-84
2022/09/30 00:14:50;;;;;;;5.63;5.10;;;12.50;53.80;;;;;;20719;6841;117307;-84
2022/09/30 00:17:15;;;;;;;6.40;5.90;;;12.20;54.40;;;;;;20516;6841;336877;-84
2022/09/30 00:19:42;;;;;;;6.25;5.75;;;12.70;54.40;;;;;;20500;6841;308184;-85
2022/09/30 00:22:07;;;;;;;6.50;6.00;;;12.60;54.80;;;;;;20518;6841;311034;-84
2022/09/30 00:24:33;;;;;;;5.70;5.30;;;12.90;53.80;;;;;;20520;6841;298920;-84
2022/09/30 00:26:58;;;;;;;5.37;4.87;;;13.10;53.50;;;;;;20731;6841;117967;-84
2022/09/30 00:29:25;;;;;;;6.37;5.80;;;12.90;53.70;;;;;;20523;6841;324119;-84
2022/09/30 00:31:52;;;;;;;5.43;4.93;;;12.60;53.80;;;;;;20707;6841;120579;-84
2022/09/30 00:34:18;;;;;;;5.83;5.33;;;12.60;53.80;;;;;;20732;6841;117441;-84
2022/09/30 00:36:49;;;;;;;5.50;5.10;;;12.30;54.30;;;;;;20731;6841;119264;-84
2022/09/30 00:39:15;;;;;;;5.80;5.30;;;12.00;55.00;;;;;;20726;6841;120231;-84
2022/09/30 00:41:42;;;;;;;5.80;5.30;;;11.70;56.10;;;;;;20711;6841;117989;-84
2022/09/30 00:44:38;;;;;;;5.20;4.63;;;11.60;56.00;;;;;;20728;6841;118261;-84
2022/09/30 00:47:05;;;;;;;5.60;5.10;;;11.50;56.40;;;;;;20516;6841;336914;-84
2022/09/30 00:49:29;;;;;;;6.12;5.25;;;11.90;57.00;;;;;;20719;6841;118381;-84
2022/09/30 00:51:58;;;;;;;6.07;5.53;;;12.00;56.70;;;;;;20505;6839;338290;-84
2022/09/30 00:54:23;;;;;;;6.17;5.67;;;12.20;56.10;;;;;;20743;6841;117361;-84
2022/09/30 00:56:49;;;;;;;6.35;5.87;;;12.20;56.10;;;;;;20514;6841;310776;-84
2022/09/30 00:59:23;;;;;;;6.32;5.90;;;12.30;56.30;;;;;;20506;6841;310881;-84
2022/09/30 01:01:48;;;;;;;7.67;7.07;;;12.70;56.10;;;;;;20679;6841;117814;-84
2022/09/30 01:04:14;;;;;;;7.62;7.12;;;12.60;56.00;;;;;;20519;6841;282383;-84
2022/09/30 01:06:39;;;;;;;6.53;6.10;;;12.70;56.40;;;;;;20507;6841;337164;-84
2022/09/30 01:09:05;;;;;;;6.97;6.47;;;12.90;56.20;;;;;;20509;6841;282270;-84
2022/09/30 01:11:30;;;;;;;4.93;4.63;;;13.20;55.70;;;;;;20719;6841;117446;-84
2022/09/30 01:13:56;;;;;;;7.73;4.77;;;13.00;55.50;;;;;;20710;6841;122394;-84
2022/09/30 01:16:48;;;;;;;6.18;5.68;;;12.80;56.10;;;;;;20522;6841;309284;-84
2022/09/30 01:19:27;;;;;;;6.50;6.10;;;12.80;55.90;;;;;;20720;6841;117397;-82
2022/09/30 01:22:13;;;;;;;6.10;5.70;;;12.70;55.90;;;;;;20702;6841;190303;-84
2022/09/30 01:24:58;;;;;;;6.57;6.18;;;12.40;56.20;;;;;;20503;6841;337269;-84
2022/09/30 01:28:00;;;;;;;6.20;5.80;;;12.60;56.10;;;;;;20518;6841;278327;-85
2022/09/30 01:30:46;;;;;;;6.00;5.70;;;12.80;55.30;;;;;;20513;6841;308140;-85
2022/09/30 01:33:34;;;;;;;6.00;5.60;;;13.10;54.90;;;;;;20510;6841;306938;-85
2022/09/30 01:36:04;;;;;;;5.90;5.35;;;13.20;54.50;;;;;;20525;6841;278218;-85
2022/09/30 01:38:29;;;;;;;5.30;5.00;;;13.40;54.10;;;;;;20716;6841;120212;-85
2022/09/30 01:41:04;;;;;;;5.70;5.28;;;13.10;54.30;;;;;;20342;6841;117746;-86
2022/09/30 01:43:46;;;;;;;5.43;5.03;;;12.80;55.10;;;;;;20729;6841;117277;-85
2022/09/30 01:46:28;;;;;;;5.13;4.83;;;12.40;55.60;;;;;;20762;6841;117882;-86
2022/09/30 01:49:10;;;;;;;5.25;4.85;;;12.20;56.20;;;;;;20519;6841;281144;-88
2022/09/30 01:51:49;;;;;;;4.90;4.60;;;12.40;56.70;;;;;;20386;6841;120201;-87
2022/09/30 01:54:20;;;;;;;4.40;4.20;;;12.40;56.50;;;;;;20704;6841;117609;-85
2022/09/30 01:56:49;;;;;;;5.50;5.10;;;12.20;56.70;;;;;;20514;6841;309208;-85
2022/09/30 01:59:35;;;;;;;4.60;4.30;;;12.40;56.40;;;;;;20715;6841;117544;-84
2022/09/30 02:02:07;;;;;;;5.17;4.77;;;12.40;56.10;;;;;;20483;6839;310305;-85
2022/09/30 02:04:32;;;;;;;4.73;4.40;;;12.60;55.80;;;;;;20720;6840;118363;-85
2022/09/30 02:06:57;;;;;;;5.07;4.78;;;12.50;55.30;;;;;;20510;6841;309528;-86
2022/09/30 02:09:42;;;;;;;4.73;4.43;;;12.60;55.60;;;;;;20713;6841;118505;-85
2022/09/30 02:12:08;;;;;;;4.60;4.10;;;12.60;55.80;;;;;;19953;6841;119229;-85
2022/09/30 02:14:39;;;;;;;5.47;5.07;;;12.30;56.90;;;;;;20477;6841;281142;-85
2022/09/30 02:17:09;;;;;;;4.90;4.60;;;12.80;55.70;;;;;;20500;6841;310382;-85
2022/09/30 02:19:35;;;;;;;4.93;4.72;;;12.80;55.40;;;;;;20472;6841;340271;-85
2022/09/30 02:22:03;;;;;;;4.17;3.97;;;13.00;54.80;;;;;;20640;6841;117436;-85
2022/09/30 02:24:30;;;;;;;4.70;4.07;;;12.90;54.90;;;;;;20587;6841;117661;-85
2022/09/30 02:26:55;;;;;;;5.25;4.85;;;12.50;55.30;;;;;;20489;6841;309406;-84
2022/09/30 02:29:21;;;;;;;5.03;4.63;;;12.60;55.30;;;;;;20723;6841;118138;-85
2022/09/30 02:31:47;;;;;;;6.12;5.53;;;12.50;55.40;;;;;;20371;6841;308296;-84
2022/09/30 02:34:13;;;;;;;5.60;4.80;;;12.60;55.40;;;;;;20492;6841;336544;-85
2022/09/30 02:36:59;;;;;;;5.37;4.97;;;12.60;54.90;;;;;;20714;6841;117258;-84
2022/09/30 02:39:24;;;;;;;5.70;5.40;;;12.60;54.90;;;;;;20294;6841;310300;-84
2022/09/30 02:41:51;;;;;;;5.45;5.15;;;12.50;54.70;;;;;;20697;6841;118554;-85
2022/09/30 02:44:17;;;;;;;4.97;4.67;;;12.50;54.70;;;;;;20723;6841;117677;-85
2022/09/30 02:46:52;;;;;;;5.70;5.20;;;12.20;55.30;;;;;;20721;6841;117371;-85
2022/09/30 02:49:24;;;;;;;6.10;5.70;;;12.00;55.90;;;;;;20483;6841;307377;-85
2022/09/30 02:52:10;;;;;;;6.03;5.70;;;12.10;55.60;;;;;;20690;6841;123385;-85
2022/09/30 02:54:35;;;;;;;5.63;5.13;;;12.10;55.60;;;;;;20709;6841;117395;-85
2022/09/30 02:57:33;;;;;;;6.62;6.12;;;11.80;55.90;;;;;;20483;6841;308413;-84
2022/09/30 02:59:59;;;;;;;5.63;5.23;;;12.00;56.40;;;;;;20695;6841;120905;-85
2022/09/30 03:02:25;;;;;;;6.70;6.18;;;11.90;56.30;;;;;;20516;6841;277954;-84
2022/09/30 03:04:50;;;;;;;6.10;5.80;;;12.10;56.10;;;;;;20736;6841;117933;-85
2022/09/30 03:07:16;;;;;;;7.00;6.60;;;12.10;56.00;;;;;;20533;6841;311030;-85
2022/09/30 03:09:41;;;;;;;6.57;5.93;;;12.20;55.60;;;;;;20713;6841;117708;-85
2022/09/30 03:12:07;;;;;;;6.50;6.00;;;12.10;55.60;;;;;;20735;6841;118588;-85
2022/09/30 03:14:32;;;;;;;7.00;6.40;;;11.90;56.10;;;;;;20509;6839;337112;-85
2022/09/30 03:17:01;;;;;;;7.17;6.67;;;12.10;56.60;;;;;;20721;6841;117735;-84
2022/09/30 03:19:33;;;;;;;7.60;7.07;;;12.00;56.40;;;;;;20503;6841;277145;-85
2022/09/30 03:22:01;;;;;;;8.10;7.53;;;12.20;56.10;;;;;;20513;6841;308739;-85
2022/09/30 03:24:33;;;;;;;7.85;7.35;;;12.50;55.30;;;;;;20509;6841;337444;-85
2022/09/30 03:26:59;;;;;;;8.23;7.53;;;12.70;54.90;;;;;;20498;6841;280234;-85
2022/09/30 03:29:41;;;;;;;6.22;5.78;;;12.90;54.50;;;;;;20697;6841;117291;-85
2022/09/30 03:32:26;;;;;;;7.47;6.97;;;12.70;54.80;;;;;;20503;6841;279677;-85
2022/09/30 03:35:08;;;;;;;5.80;5.40;;;12.70;54.90;;;;;;19472;7184;320345;-85
2022/09/30 03:37:44;;;;;;;5.83;5.43;;;12.90;54.50;;;;;;19462;7185;321245;-85
2022/09/30 03:40:09;;;;;;;5.17;4.87;;;13.00;54.20;;;;;;19642;6856;303423;-85
2022/09/30 03:42:32;;;;;;;5.30;5.00;;;13.20;53.30;;;;;;20475;6841;280099;-85
2022/09/30 03:45:01;;;;;;;5.60;5.15;;;13.20;53.30;;;;;;20500;6839;313584;-85
2022/09/30 03:47:26;;;;;;;5.23;4.80;;;13.20;53.00;;;;;;20525;6841;280345;-85
2022/09/30 03:49:53;;;;;;;4.70;4.37;;;13.30;52.80;;;;;;20712;6839;119753;-85
2022/09/30 03:52:17;;;;;;;4.30;3.97;;;13.00;53.30;;;;;;20713;6844;118346;-84
2022/09/30 03:54:44;;;;;;;4.55;4.25;;;12.60;54.10;;;;;;20822;6810;117356;-85
2022/09/30 03:57:09;;;;;;;5.55;5.15;;;12.30;54.80;;;;;;20542;6810;306918;-85
2022/09/30 03:59:34;;;;;;;6.30;5.72;;;12.30;54.50;;;;;;20494;6838;308206;-85
2022/09/30 04:02:00;;;;;;;5.60;5.10;;;12.60;54.00;;;;;;20717;6838;118134;-85
2022/09/30 04:04:25;;;;;;;4.60;4.30;;;12.40;53.90;;;;;;20707;6840;118478;-86
2022/09/30 04:06:51;;;;;;;6.05;5.65;;;12.10;54.50;;;;;;20519;6838;342113;-84
2022/09/30 04:09:17;;;;;;;5.50;5.10;;;12.20;54.80;;;;;;20719;6838;118085;-85
2022/09/30 04:11:43;;;;;;;7.95;7.45;;;12.20;54.50;;;;;;20493;6838;310290;-87
2022/09/30 04:14:10;;;;;;;159.60;11.10;;;12.20;54.50;;;;;;20727;6838;117594;-84
2022/09/30 04:16:35;;;;;;;24.13;8.20;;;12.10;54.50;;;;;;20718;6838;119676;-84
2022/09/30 04:19:01;;;;;;;8.20;7.50;;;11.80;54.90;;;;;;20750;6837;117941;-83
2022/09/30 04:21:27;;;;;;;9.63;8.93;;;11.60;55.40;;;;;;20527;6841;338737;-84
2022/09/30 04:23:53;;;;;;;9.40;8.73;;;11.70;55.20;;;;;;20813;6810;121598;-84
2022/09/30 04:26:19;;;;;;;8.57;7.90;;;11.60;55.10;;;;;;20833;6809;118491;-86
2022/09/30 04:28:46;;;;;;;9.10;8.50;;;11.40;55.50;;;;;;20616;6810;310195;-85
2022/09/30 04:31:14;;;;;;;9.30;8.70;;;11.50;55.80;;;;;;20621;6810;277906;-85
2022/09/30 04:33:39;;;;;;;8.47;7.90;;;11.80;55.50;;;;;;20592;6810;278796;-84
2022/09/30 04:36:04;;;;;;;8.45;7.95;;;12.00;55.00;;;;;;20648;6810;306530;-84
2022/09/30 04:38:31;;;;;;;8.33;7.73;;;12.20;54.80;;;;;;20621;6810;293393;-85
2022/09/30 04:40:57;;;;;;;7.57;7.00;;;12.40;54.50;;;;;;20833;6810;117754;-85
2022/09/30 04:43:22;;;;;;;7.72;7.12;;;12.20;54.70;;;;;;20622;6810;278004;-85
2022/09/30 04:45:48;;;;;;;6.80;6.20;;;12.20;55.10;;;;;;20832;6810;119211;-82
2022/09/30 04:48:15;;;;;;;6.53;5.80;;;12.10;55.40;;;;;;20846;6810;116409;-83
2022/09/30 04:50:40;;;;;;;6.78;6.37;;;11.80;55.90;;;;;;20652;6810;301891;-85
2022/09/30 04:53:06;;;;;;;6.27;5.77;;;12.00;56.20;;;;;;20861;6810;118439;-83
2022/09/30 04:55:31;;;;;;;6.85;6.35;;;11.90;56.10;;;;;;20662;6810;335355;-83
2022/09/30 04:57:57;;;;;;;15.07;13.67;;;12.10;56.00;;;;;;20855;6810;120044;-83
2022/09/30 05:00:23;;;;;;;6.40;6.00;;;12.00;55.90;;;;;;20646;6810;338809;-86
2022/09/30 05:02:48;;;;;;;21.73;19.73;;;12.20;55.90;;;;;;20848;6810;119855;-85
2022/09/30 05:05:14;;;;;;;15.60;14.30;;;12.10;55.80;;;;;;20624;6810;310691;-86
2022/09/30 05:07:41;;;;;;;7.00;6.60;;;12.20;55.20;;;;;;20571;6810;308967;-86
2022/09/30 05:10:07;;;;;;;5.73;5.33;;;12.50;54.80;;;;;;20612;6810;278336;-86
2022/09/30 05:12:34;;;;;;;6.23;5.77;;;12.60;54.20;;;;;;20815;6810;119400;-86
2022/09/30 05:15:01;;;;;;;4.70;4.40;;;12.60;54.20;;;;;;20832;6810;117131;-86
2022/09/30 05:17:26;;;;;;;5.20;4.90;;;12.30;54.90;;;;;;20846;6810;119324;-85
2022/09/30 05:19:53;;;;;;;5.20;4.90;;;11.80;56.20;;;;;;20816;6810;118670;-86
2022/09/30 05:22:18;;;;;;;5.82;5.50;;;11.80;56.00;;;;;;20634;6810;307355;-87
2022/09/30 05:24:44;;;;;;;5.17;4.77;;;12.10;55.90;;;;;;20847;6810;117721;-86
2022/09/30 05:27:10;;;;;;;5.45;5.03;;;11.90;56.20;;;;;;20837;6810;116730;-85
2022/09/30 05:29:36;;;;;;;4.77;4.47;;;11.90;56.10;;;;;;20823;6810;119686;-85
2022/09/30 05:32:01;;;;;;;4.67;4.37;;;11.80;56.50;;;;;;20838;6810;117414;-85
2022/09/30 05:34:27;;;;;;;5.40;4.90;;;11.70;56.90;;;;;;20842;6810;117699;-84
2022/09/30 05:36:52;;;;;;;5.60;5.20;;;11.60;57.20;;;;;;20837;6809;119268;-85
2022/09/30 05:39:18;;;;;;;6.50;5.53;;;11.50;57.80;;;;;;20841;6810;117104;-85
2022/09/30 05:41:43;;;;;;;5.73;5.40;;;11.50;57.50;;;;;;20611;6810;337939;-85
2022/09/30 05:44:09;;;;;;;5.40;5.05;;;11.80;57.80;;;;;;20623;6810;280062;-85
2022/09/30 05:46:35;;;;;;;4.17;3.97;;;12.20;56.60;;;;;;20842;6810;119729;-85
2022/09/30 05:49:01;;;;;;;5.20;4.70;;;12.30;56.40;;;;;;20843;6810;117644;-85
2022/09/30 05:51:27;;;;;;;5.20;4.80;;;12.20;56.70;;;;;;20841;6810;117148;-85
2022/09/30 05:53:54;;;;;;;24.35;22.20;;;12.10;57.10;;;;;;20611;6810;282729;-85
2022/09/30 05:56:19;;;;;;;11.83;11.03;;;12.30;55.70;;;;;;20621;6810;326407;-85
2022/09/30 05:58:46;;;;;;;11.50;10.60;;;12.60;54.60;;;;;;20795;6810;118065;-85
2022/09/30 06:01:11;;;;;;;11.03;10.13;;;12.60;54.60;;;;;;20633;6810;282248;-85
2022/09/30 06:03:37;;;;;;;8.53;7.93;;;13.00;55.10;;;;;;20601;6810;306616;-84
2022/09/30 06:06:03;;;;;;;13.50;9.20;;;13.00;55.10;;;;;;20631;6810;308362;-84
2022/09/30 06:08:29;;;;;;;8.13;7.50;;;13.30;54.50;;;;;;20838;6810;117332;-84
2022/09/30 06:10:54;;;;;;;8.38;7.72;;;13.30;54.70;;;;;;20750;6838;117270;-84
2022/09/30 06:13:20;;;;;;;8.20;7.62;;;13.10;55.30;;;;;;20758;6838;119003;-85
2022/09/30 06:16:00;;;;;;;7.53;6.93;;;12.90;55.70;;;;;;20572;6824;308141;-84
2022/09/30 06:18:25;;;;;;;6.87;5.73;;;13.20;55.10;;;;;;20802;6824;117314;-84
2022/09/30 06:20:51;;;;;;;9.40;7.30;;;13.20;55.10;;;;;;20592;6824;308574;-84
2022/09/30 06:23:16;;;;;;;13.98;6.90;;;13.50;54.20;;;;;;20807;6824;117472;-84
2022/09/30 06:25:44;;;;;;;6.45;5.95;;;13.50;54.70;;;;;;20784;6824;122397;-84
2022/09/30 06:28:08;;;;;;;7.53;5.70;;;13.50;54.60;;;;;;20799;6824;117989;-84
2022/09/30 06:30:34;;;;;;;6.62;6.05;;;13.40;54.90;;;;;;20586;6824;308067;-84
2022/09/30 06:33:02;;;;;;;6.40;5.93;;;13.70;53.90;;;;;;20812;6824;117517;-84
2022/09/30 06:35:28;;;;;;;6.93;6.53;;;13.80;54.00;;;;;;20588;6824;298555;-84
2022/09/30 06:37:53;;;;;;;5.65;5.32;;;14.10;52.00;;;;;;20791;6824;118772;-84
2022/09/30 06:40:20;;;;;;;5.40;5.10;;;14.00;52.70;;;;;;20809;6824;120467;-84
2022/09/30 06:42:46;;;;;;;4.83;4.60;;;14.00;52.70;;;;;;20793;6824;117437;-84
2022/09/30 06:45:11;;;;;;;5.00;4.70;;;13.90;53.10;;;;;;20581;6824;336544;-84
2022/09/30 06:47:37;;;;;;;5.33;5.03;;;14.10;51.30;;;;;;20564;6824;290049;-84
2022/09/30 06:50:03;;;;;;;4.83;4.63;;;14.40;50.20;;;;;;20805;6822;120616;-86
2022/09/30 06:52:29;;;;;;;5.37;5.07;;;14.50;50.70;;;;;;20588;6823;281499;-84
2022/09/30 06:54:57;;;;;;;4.87;4.50;;;14.50;50.10;;;;;;20804;6823;120345;-84
2022/09/30 06:57:23;;;;;;;4.87;4.65;;;14.40;50.60;;;;;;20579;6823;337306;-84
2022/09/30 06:59:49;;;;;;;5.63;4.60;;;14.40;50.40;;;;;;20774;6823;117897;-84
2022/09/30 07:02:15;;;;;;;5.80;5.33;;;14.40;50.40;;;;;;20581;6823;307325;-84
2022/09/30 07:04:41;;;;;;;9.13;8.43;;;14.50;50.30;;;;;;20799;6823;119709;-84
2022/09/30 07:07:07;;;;;;;5.90;5.50;;;14.50;50.70;;;;;;20804;6823;117552;-83
2022/09/30 07:09:33;;;;;;;5.30;4.82;;;14.30;51.40;;;;;;20813;6824;117704;-84
2022/09/30 07:11:58;;;;;;;4.47;4.13;;;14.10;51.90;;;;;;20794;6824;118751;-84
2022/09/30 07:14:24;;;;;;;4.90;4.50;;;14.00;52.30;;;;;;20820;6824;121829;-84
2022/09/30 07:16:51;;;;;;;5.25;4.87;;;13.90;52.60;;;;;;20805;6824;117742;-84
2022/09/30 07:19:16;;;;;;;5.87;5.50;;;14.10;52.40;;;;;;20586;6824;280785;-84
2022/09/30 07:21:41;;;;;;;4.97;4.70;;;14.00;52.00;;;;;;20777;6824;122406;-84
2022/09/30 07:24:08;;;;;;;5.30;4.80;;;14.20;52.20;;;;;;20799;6824;117564;-84
2022/09/30 07:26:32;;;;;;;5.93;5.53;;;14.10;52.40;;;;;;20798;6824;117700;-83
2022/09/30 07:28:59;;;;;;;6.17;5.77;;;14.10;53.80;;;;;;20805;6824;117173;-84
2022/09/30 07:31:24;;;;;;;6.28;5.87;;;14.10;53.10;;;;;;20580;6824;338395;-83
2022/09/30 07:33:50;;;;;;;6.37;5.87;;;14.60;52.40;;;;;;20770;6824;117633;-84
2022/09/30 07:36:17;;;;;;;6.30;5.90;;;14.50;52.30;;;;;;20783;6824;116981;-84
2022/09/30 07:38:41;;;;;;;9.07;4.90;;;14.60;53.20;;;;;;20778;6824;116835;-84
2022/09/30 07:41:11;;;;;;;5.53;5.13;;;14.60;52.60;;;;;;20585;6824;280032;-84
2022/09/30 07:43:39;;;;;;;5.20;4.90;;;14.80;51.30;;;;;;20564;6824;305490;-84
2022/09/30 07:46:07;;;;;;;5.00;4.70;;;15.30;50.30;;;;;;20805;6824;118043;-84
2022/09/30 07:48:44;;;;;;;6.43;5.80;;;15.10;50.80;;;;;;20797;6824;119863;-84
2022/09/30 07:51:15;;;;;;;5.80;5.33;;;15.10;50.80;;;;;;20796;6824;117613;-84
2022/09/30 07:53:40;;;;;;;5.53;5.17;;;14.90;51.20;;;;;;20652;6824;124247;-84
2022/09/30 07:56:07;;;;;;;5.30;4.90;;;14.80;51.60;;;;;;20795;6824;118090;-84
2022/09/30 07:58:33;;;;;;;5.67;5.17;;;14.60;51.80;;;;;;20798;6824;117683;-84
2022/09/30 08:00:58;;;;;;;5.90;5.50;;;14.60;52.00;;;;;;20796;6822;117900;-83
2022/09/30 08:03:27;;;;;;;5.82;5.43;;;14.50;52.30;;;;;;20805;6823;117143;-84
2022/09/30 08:05:52;;;;;;;6.17;5.57;;;14.40;52.50;;;;;;20784;6823;117316;-84
2022/09/30 08:08:18;;;;;;;6.12;5.60;;;14.40;52.80;;;;;;20807;6823;116365;-84
2022/09/30 08:10:45;;;;;;;6.30;5.90;;;14.40;52.80;;;;;;20804;6823;117251;-84
2022/09/30 08:13:15;;;;;;;6.80;6.30;;;14.40;52.90;;;;;;20811;6823;117526;-84
2022/09/30 08:15:40;;;;;;;12.70;11.80;;;14.30;53.10;;;;;;20780;6823;117708;-84
2022/09/30 08:18:06;;;;;;;7.10;6.60;;;14.40;53.30;;;;;;20597;6823;278097;-84
2022/09/30 08:20:32;;;;;;;6.80;6.40;;;14.70;52.80;;;;;;20589;6824;312698;-84
2022/09/30 08:22:58;;;;;;;5.97;5.68;;;15.10;51.60;;;;;;20596;6824;277976;-84
2022/09/30 08:25:23;;;;;;;6.67;5.70;;;15.50;51.20;;;;;;20586;6824;309015;-84
2022/09/30 08:27:49;;;;;;;6.13;5.83;;;15.70;50.50;;;;;;20569;6824;281266;-84
2022/09/30 08:30:14;;;;;;;5.78;5.47;;;15.90;49.70;;;;;;20585;6824;279711;-84
2022/09/30 08:32:40;;;;;;;6.68;6.18;;;16.00;50.20;;;;;;20574;6824;337071;-84
2022/09/30 08:35:06;;;;;;;6.00;5.53;;;16.30;49.50;;;;;;20587;6824;298933;-85
2022/09/30 08:37:32;;;;;;;6.00;5.60;;;16.30;49.50;;;;;;20581;6824;309463;-84
2022/09/30 08:39:57;;;;;;;5.83;5.40;;;16.40;49.30;;;;;;20772;6824;123037;-83
2022/09/30 08:42:39;;;;;;;5.40;5.10;;;16.20;49.80;;;;;;20798;6824;118053;-84
2022/09/30 08:45:12;;;;;;;5.82;5.40;;;15.90;50.50;;;;;;20545;6824;308708;-83
2022/09/30 08:48:01;;;;;;;8.07;7.45;;;16.10;50.40;;;;;;20091;6824;278414;-84
2022/09/30 08:50:30;;;;;;;6.47;6.07;;;16.10;49.90;;;;;;20580;6824;339318;-83
2022/09/30 08:52:58;;;;;;;6.05;5.65;;;16.40;49.80;;;;;;20571;6824;309769;-83
2022/09/30 08:55:24;;;;;;;5.53;5.22;;;16.40;49.20;;;;;;20576;6824;306574;-83
2022/09/30 08:57:51;;;;;;;5.75;5.25;;;16.60;48.70;;;;;;20574;6824;278457;-84
2022/09/30 09:00:17;;;;;;;5.83;5.43;;;16.70;48.30;;;;;;20583;6824;307052;-84
2022/09/30 09:02:56;;;;;;;6.03;5.53;;;16.70;48.30;;;;;;20792;6824;118678;-84
2022/09/30 09:05:40;;;;;;;5.78;5.47;;;16.50;49.00;;;;;;20584;6824;336594;-84
2022/09/30 09:08:28;;;;;;;5.70;5.40;;;16.50;49.00;;;;;;20791;6824;116730;-84
2022/09/30 09:11:00;;;;;;;6.20;5.80;;;16.40;49.60;;;;;;20766;6824;117369;-83
2022/09/30 09:13:46;;;;;;;6.20;5.70;;;16.20;50.20;;;;;;19549;6823;124820;-83
2022/09/30 09:16:21;;;;;;;6.43;6.03;;;16.20;50.70;;;;;;20584;6823;277291;-84
2022/09/30 09:19:07;;;;;;;6.23;5.73;;;16.60;49.10;;;;;;20779;6823;118575;-84
2022/09/30 09:21:56;;;;;;;7.53;7.07;;;16.70;49.30;;;;;;20582;6823;278797;-84
2022/09/30 09:24:31;;;;;;;8.07;7.53;;;17.10;49.00;;;;;;20587;6823;310284;-84
2022/09/30 09:26:57;;;;;;;7.90;7.33;;;17.50;47.50;;;;;;20771;6823;116528;-86
2022/09/30 09:29:42;;;;;;;8.37;7.87;;;17.50;47.80;;;;;;20576;6823;308116;-84
2022/09/30 09:32:16;;;;;;;8.95;8.25;;;17.70;46.70;;;;;;20575;6824;336202;-84
2022/09/30 09:34:43;;;;;;;8.00;7.40;;;18.00;45.80;;;;;;20743;6824;117411;-86
2022/09/30 09:37:12;;;;;;;8.10;7.50;;;17.90;46.50;;;;;;20573;6824;308319;-84
2022/09/30 09:39:51;;;;;;;7.57;7.07;;;18.00;47.00;;;;;;20746;6824;121567;-84
2022/09/30 09:42:36;;;;;;;8.20;7.60;;;18.00;47.50;;;;;;20772;6824;118734;-82
2022/09/30 09:45:01;;;;;;;9.05;8.45;;;17.80;47.70;;;;;;20549;6824;337662;-83
2022/09/30 09:47:27;;;;;;;8.10;7.50;;;17.90;46.30;;;;;;20767;6824;116264;-83
2022/09/30 09:49:55;;;;;;;9.07;8.47;;;17.90;46.80;;;;;;20604;6824;277511;-83
2022/09/30 09:52:30;;;;;;;8.97;8.37;;;18.00;46.50;;;;;;20577;6824;310850;-83
2022/09/30 09:54:56;;;;;;;8.67;8.10;;;18.20;45.60;;;;;;20538;6824;301798;-83
2022/09/30 09:57:26;;;;;;;8.57;8.07;;;18.70;45.60;;;;;;20577;6824;308061;-83
2022/09/30 09:59:55;;;;;;;7.87;7.27;;;18.60;46.10;;;;;;20762;6824;118204;-83
2022/09/30 10:02:23;;;;;;;7.93;7.32;;;18.70;46.10;;;;;;20260;6824;278059;-83
2022/09/30 10:05:10;;;;;;;7.30;6.90;;;18.80;44.30;;;;;;20591;6824;309779;-82
2022/09/30 10:07:31;;;;;;;6.40;6.00;;;19.00;43.80;;;;;;20797;6824;120898;-82
2022/09/30 10:10:17;;;;;;;6.77;6.27;;;18.90;44.80;;;;;;20789;6824;121956;-82
2022/09/30 10:12:42;;;;;;;6.57;6.20;;;18.70;45.20;;;;;;20793;6824;117444;-86
2022/09/30 10:15:11;;;;;;;6.30;5.90;;;18.50;45.50;;;;;;20802;6824;117370;-87
2022/09/30 10:17:36;;;;;;;6.43;5.97;;;18.40;45.70;;;;;;20557;6824;284184;-84
2022/09/30 10:20:06;;;;;;;7.70;7.10;;;18.50;44.50;;;;;;20405;6824;321605;-85
2022/09/30 10:22:31;;;;;;;7.33;6.77;;;18.90;43.80;;;;;;20557;6824;278888;-82
2022/09/30 10:25:13;;;;;;;6.53;6.12;;;18.90;43.80;;;;;;20583;6822;279248;-84
2022/09/30 10:27:58;;;;;;;7.45;6.95;;;19.10;43.50;;;;;;20569;6823;279297;-85
2022/09/30 10:30:34;;;;;;;6.70;6.20;;;19.10;43.20;;;;;;20785;6823;122302;-84
2022/09/30 10:33:02;;;;;;;7.00;6.50;;;18.90;44.20;;;;;;20801;6823;118181;-83
2022/09/30 10:35:25;;;;;;;4.83;4.57;;;18.40;45.70;;;;;;20781;6823;117293;-83
2022/09/30 10:37:52;;;;;;;5.28;4.87;;;18.40;45.70;;;;;;20562;6823;309064;-83
2022/09/30 10:40:21;;;;;;;6.50;6.10;;;18.50;45.40;;;;;;20590;6823;306511;-82
2022/09/30 10:42:44;;;;;;;4.50;4.20;;;18.90;44.80;;;;;;20799;6823;119574;-82
2022/09/30 10:45:24;;;;;;;4.70;4.30;;;19.00;45.00;;;;;;20819;6824;118473;-82
2022/09/30 10:47:49;;;;;;;4.40;4.10;;;18.90;45.10;;;;;;20560;6824;282412;-83
2022/09/30 10:50:16;;;;;;;3.62;3.37;;;19.10;43.50;;;;;;20811;6824;118867;-83
2022/09/30 10:52:43;;;;;;;4.30;4.00;;;19.10;44.00;;;;;;20587;6824;307211;-84
2022/09/30 10:55:18;;;;;;;4.17;3.97;;;19.30;43.40;;;;;;20802;6824;117338;-85
2022/09/30 10:57:44;;;;;;;3.70;2.87;;;19.30;43.80;;;;;;20791;6824;117326;-85
2022/09/30 11:00:13;;;;;;;2.80;1.98;;;19.20;43.90;;;;;;20809;6824;118473;-84
2022/09/30 11:02:38;;;;;;;2.50;2.30;;;19.00;43.10;;;;;;20739;6824;118541;-85
2022/09/30 11:05:04;;;;;;;2.10;2.00;;;18.90;42.80;;;;;;20571;6824;311362;-85
2022/09/30 11:07:34;;;;;;;2.85;2.75;;;19.50;40.60;;;;;;20559;6824;280425;-85
2022/09/30 11:10:07;;;;;;;2.67;2.58;;;19.50;40.60;;;;;;20553;6824;281391;-84
2022/09/30 11:12:46;;;;;;;2.37;2.17;;;19.80;38.80;;;;;;19969;6824;281164;-84
2022/09/30 11:15:12;;;;;;;1.70;1.60;;;20.00;38.20;;;;;;20436;6824;116412;-84
2022/09/30 11:17:58;;;;;;;1.17;1.17;;;19.60;38.60;;;;;;20689;6824;118211;-84
2022/09/30 11:20:24;;;;;;;2.20;1.60;;;19.60;38.60;;;;;;20588;6824;307425;-83
2022/09/30 11:23:02;;;;;;;1.50;1.40;;;19.70;36.30;;;;;;20798;6824;118946;-83
2022/09/30 11:25:39;;;;;;;1.70;1.60;;;19.70;36.80;;;;;;20597;6824;279848;-83
2022/09/30 11:28:27;;;;;;;1.50;1.40;;;19.80;33.70;;;;;;20571;6824;308886;-83
2022/09/30 11:31:03;;;;;;;2.20;1.62;;;19.90;32.60;;;;;;20608;6824;307752;-83
2022/09/30 11:33:41;;;;;;;3.00;2.80;;;20.00;33.40;;;;;;20472;6824;281765;-83
2022/09/30 11:36:07;;;;;;;2.92;2.62;;;20.00;34.40;;;;;;20599;6822;278291;-85
2022/09/30 11:38:49;;;;;;;2.30;2.20;;;20.10;35.50;;;;;;20766;6823;117330;-86
2022/09/30 11:41:27;;;;;;;1.97;1.87;;;19.90;36.90;;;;;;20567;6823;304237;-84
2022/09/30 11:44:00;;;;;;;3.53;1.70;;;19.90;35.40;;;;;;20768;6823;121525;-84
2022/09/30 11:46:49;;;;;;;1.80;1.50;;;19.70;35.80;;;;;;20766;6823;117187;-85
2022/09/30 11:49:34;;;;;;;1.77;1.67;;;19.40;36.60;;;;;;20768;6823;117282;-84
2022/09/30 11:52:30;;;;;;;2.00;1.80;;;19.10;37.60;;;;;;20770;6823;116368;-83
2022/09/30 11:55:25;;;;;;;2.90;2.20;;;19.00;38.50;;;;;;20580;6824;309239;-85
2022/09/30 11:57:50;;;;;;;2.03;1.83;;;19.30;37.40;;;;;;20805;6824;117633;-86
2022/09/30 12:00:16;;;;;;;2.40;2.30;;;19.30;38.00;;;;;;20556;6824;307544;-88
2022/09/30 12:03:00;;;;;;;5.67;2.10;;;19.50;37.90;;;;;;20770;6824;117295;-85
2022/09/30 12:05:25;;;;;;;3.30;2.10;;;19.50;38.30;;;;;;20571;6824;285533;-87
2022/09/30 12:07:51;;;;;;;2.00;1.90;;;19.70;38.40;;;;;;20757;6824;119466;-88
2022/09/30 12:10:17;;;;;;;3.00;2.80;;;19.70;38.40;;;;;;20766;6824;117999;-85
2022/09/30 12:12:42;;;;;;;3.13;2.30;;;19.60;38.40;;;;;;20574;6824;310168;-85
2022/09/30 12:15:08;;;;;;;2.20;2.10;;;19.70;37.60;;;;;;20582;6824;280885;-85
2022/09/30 12:17:54;;;;;;;2.40;2.30;;;20.10;36.40;;;;;;20566;6824;310820;-85
2022/09/30 12:20:33;;;;;;;2.40;2.30;;;20.10;36.40;;;;;;20792;6824;117924;-83
2022/09/30 12:23:04;;;;;;;2.27;2.10;;;20.00;37.10;;;;;;20805;6824;116333;-85
2022/09/30 12:25:30;;;;;;;2.10;2.00;;;19.70;37.20;;;;;;20818;6824;67385;-85
2022/09/30 12:30:15;;;;;;;2.20;2.00;;;19.50;37.70;;;;;;20780;6824;117522;-84
2022/09/30 12:30:30;;;;;;;1.87;1.73;;;19.30;38.00;;;;;;20515;6824;307626;-86
2022/09/30 12:33:02;;;;;;;1.95;1.75;;;19.40;36.50;;;;;;20807;6824;117251;-86
2022/09/30 12:35:37;;;;;;;1.93;1.73;;;19.50;37.30;;;;;;20829;6824;118886;-85
2022/09/30 12:38:26;;;;;;;1.80;1.70;;;19.40;37.60;;;;;;20605;6824;278987;-84
2022/09/30 12:41:01;;;;;;;2.53;2.03;;;19.50;34.50;;;;;;20636;6824;277372;-85
2022/09/30 12:43:37;;;;;;;2.42;1.80;;;19.80;32.60;;;;;;20583;6824;309718;-84
2022/09/30 12:46:09;;;;;;;2.20;1.80;;;20.10;31.70;;;;;;20562;6822;310281;-87
2022/09/30 12:48:34;;;;;;;2.60;2.30;;;20.20;33.10;;;;;;20809;6823;117207;-85